< < Back
Terminal Aerodrome Forecast


Current Version              Previous Versions:   1  2  3  4  5  6  7  8  9  

Terminal Aerodrome Forecast

829
FTUS42 KGSP 272339
TAFAND
TAF
KAND 272339Z 2800/2824 09004KT P6SM SCT250
     FM280200 05005KT P6SM VCTS SCT050CB
     FM280400 06005KT P6SM SCT045
     FM281000 06005KT P6SM BKN010
     FM281400 05008KT P6SM SCT035 SCT150 PROB30 2820/2824 4SM -TSRA
      BKN060CB=

Latest METAR

559
SAUS70 KWBC 281000 RRB
MTRAND
METAR KAND 280956Z AUTO 06007KT 10SM CLR 24/21 A3014 RMK AO2 SLP195
T02390206


USA.gov is the U.S. government's official web portal to all federal, state and local government web resources and services.